sensor_id;sensor_type;location;lat;lon;timestamp;pressure;altitude;pressure_sealevel;temperature
14023;BMP180;7086;48.116;11.580;2023-05-10T00:00:38;94725.00;;;18.20
14023;BMP180;7086;48.116;11.580;2023-05-10T00:03:05;94748.00;;;18.20
14023;BMP180;7086;48.116;11.580;2023-05-10T00:05:32;94737.00;;;18.20
14023;BMP180;7086;48.116;11.580;2023-05-10T00:08:00;94730.00;;;18.20
14023;BMP180;7086;48.116;11.580;2023-05-10T00:10:27;94735.00;;;18.10
14023;BMP180;7086;48.116;11.580;2023-05-10T00:12:54;94743.00;;;18.20
14023;BMP180;7086;48.116;11.580;2023-05-10T00:15:21;94743.00;;;18.10
14023;BMP180;7086;48.116;11.580;2023-05-10T00:17:48;94736.00;;;18.20
14023;BMP180;7086;48.116;11.580;2023-05-10T00:20:14;94746.00;;;18.10
14023;BMP180;7086;48.116;11.580;2023-05-10T00:22:41;94721.00;;;18.10
14023;BMP180;7086;48.116;11.580;2023-05-10T00:25:09;94734.00;;;18.10
14023;BMP180;7086;48.116;11.580;2023-05-10T00:27:36;94725.00;;;18.10
14023;BMP180;7086;48.116;11.580;2023-05-10T00:30:04;94684.00;;;18.10
14023;BMP180;7086;48.116;11.580;2023-05-10T00:32:31;94724.00;;;18.10
14023;BMP180;7086;48.116;11.580;2023-05-10T00:34:58;94719.00;;;18.10
14023;BMP180;7086;48.116;11.580;2023-05-10T00:37:25;94710.00;;;18.00
14023;BMP180;7086;48.116;11.580;2023-05-10T00:39:51;94729.00;;;18.10
14023;BMP180;7086;48.116;11.580;2023-05-10T00:42:20;94738.00;;;18.10
14023;BMP180;7086;48.116;11.580;2023-05-10T00:44:47;94704.00;;;18.00
14023;BMP180;7086;48.116;11.580;2023-05-10T00:47:15;94684.00;;;18.00
14023;BMP180;7086;48.116;11.580;2023-05-10T00:49:42;94701.00;;;18.00
14023;BMP180;7086;48.116;11.580;2023-05-10T00:52:09;94727.00;;;18.00
14023;BMP180;7086;48.116;11.580;2023-05-10T00:54:36;94707.00;;;18.00
14023;BMP180;7086;48.116;11.580;2023-05-10T00:57:03;94671.00;;;18.00
14023;BMP180;7086;48.116;11.580;2023-05-10T00:59:32;94721.00;;;18.00
14023;BMP180;7086;48.116;11.580;2023-05-10T01:01:58;94720.00;;;18.00
14023;BMP180;7086;48.116;11.580;2023-05-10T01:04:25;94697.00;;;18.00
14023;BMP180;7086;48.116;11.580;2023-05-10T01:06:53;94716.00;;;18.00
14023;BMP180;7086;48.116;11.580;2023-05-10T01:09:21;94699.00;;;17.90
14023;BMP180;7086;48.116;11.580;2023-05-10T01:11:48;94714.00;;;17.80
14023;BMP180;7086;48.116;11.580;2023-05-10T01:14:18;94665.00;;;17.90
14023;BMP180;7086;48.116;11.580;2023-05-10T01:16:48;94706.00;;;17.80
14023;BMP180;7086;48.116;11.580;2023-05-10T01:19:19;94716.00;;;17.90
14023;BMP180;7086;48.116;11.580;2023-05-10T01:21:53;94711.00;;;17.90
14023;BMP180;7086;48.116;11.580;2023-05-10T01:25:04;94702.00;;;17.90
14023;BMP180;7086;48.116;11.580;2023-05-10T01:33:43;94706.00;;;17.80
14023;BMP180;7086;48.116;11.580;2023-05-10T01:36:19;94711.00;;;17.80
14023;BMP180;7086;48.116;11.580;2023-05-10T01:38:54;94726.00;;;17.80
14023;BMP180;7086;48.116;11.580;2023-05-10T01:41:29;94709.00;;;17.60
14023;BMP180;7086;48.116;11.580;2023-05-10T01:44:01;94714.00;;;17.70
14023;BMP180;7086;48.116;11.580;2023-05-10T01:46:34;94712.00;;;17.60
14023;BMP180;7086;48.116;11.580;2023-05-10T01:49:07;94711.00;;;17.70
14023;BMP180;7086;48.116;11.580;2023-05-10T01:51:39;94692.00;;;17.70
14023;BMP180;7086;48.116;11.580;2023-05-10T01:54:09;94685.00;;;17.70
14023;BMP180;7086;48.116;11.580;2023-05-10T01:56:37;94705.00;;;17.70
14023;BMP180;7086;48.116;11.580;2023-05-10T01:59:12;94712.00;;;17.70
14023;BMP180;7086;48.116;11.580;2023-05-10T02:01:40;94712.00;;;17.70
14023;BMP180;7086;48.116;11.580;2023-05-10T02:04:09;94700.00;;;17.70
14023;BMP180;7086;48.116;11.580;2023-05-10T02:06:38;94718.00;;;17.70
14023;BMP180;7086;48.116;11.580;2023-05-10T02:09:07;94712.00;;;17.70
14023;BMP180;7086;48.116;11.580;2023-05-10T02:11:34;94710.00;;;17.70
14023;BMP180;7086;48.116;11.580;2023-05-10T02:14:03;94706.00;;;17.70
14023;BMP180;7086;48.116;11.580;2023-05-10T02:16:32;94707.00;;;17.60
14023;BMP180;7086;48.116;11.580;2023-05-10T02:19:01;94712.00;;;17.70
14023;BMP180;7086;48.116;11.580;2023-05-10T02:21:30;94709.00;;;17.70
14023;BMP180;7086;48.116;11.580;2023-05-10T02:23:59;94715.00;;;17.70
14023;BMP180;7086;48.116;11.580;2023-05-10T02:26:27;94707.00;;;17.70
14023;BMP180;7086;48.116;11.580;2023-05-10T02:28:54;94703.00;;;17.70
14023;BMP180;7086;48.116;11.580;2023-05-10T02:31:24;94715.00;;;17.60
14023;BMP180;7086;48.116;11.580;2023-05-10T02:33:51;94712.00;;;17.60
14023;BMP180;7086;48.116;11.580;2023-05-10T02:36:21;94709.00;;;17.60
14023;BMP180;7086;48.116;11.580;2023-05-10T02:38:51;94707.00;;;17.60
14023;BMP180;7086;48.116;11.580;2023-05-10T02:41:19;94715.00;;;17.60
14023;BMP180;7086;48.116;11.580;2023-05-10T02:43:49;94713.00;;;17.60
14023;BMP180;7086;48.116;11.580;2023-05-10T02:46:17;94693.00;;;17.60
14023;BMP180;7086;48.116;11.580;2023-05-10T02:48:44;94707.00;;;17.60
14023;BMP180;7086;48.116;11.580;2023-05-10T02:51:12;94711.00;;;17.60
14023;BMP180;7086;48.116;11.580;2023-05-10T02:53:42;94704.00;;;17.60
14023;BMP180;7086;48.116;11.580;2023-05-10T02:56:13;94713.00;;;17.60
14023;BMP180;7086;48.116;11.580;2023-05-10T02:58:42;94706.00;;;17.60
14023;BMP180;7086;48.116;11.580;2023-05-10T03:01:09;94690.00;;;17.60
14023;BMP180;7086;48.116;11.580;2023-05-10T03:03:36;94709.00;;;17.60
14023;BMP180;7086;48.116;11.580;2023-05-10T03:06:03;94671.00;;;17.60
14023;BMP180;7086;48.116;11.580;2023-05-10T03:08:30;94704.00;;;17.60
14023;BMP180;7086;48.116;11.580;2023-05-10T03:11:16;94715.00;;;17.60
14023;BMP180;7086;48.116;11.580;2023-05-10T03:13:56;94644.00;;;17.50
14023;BMP180;7086;48.116;11.580;2023-05-10T03:16:34;94713.00;;;17.50
14023;BMP180;7086;48.116;11.580;2023-05-10T03:19:09;94716.00;;;17.50
14023;BMP180;7086;48.116;11.580;2023-05-10T03:21:41;94725.00;;;17.50
14023;BMP180;7086;48.116;11.580;2023-05-10T03:24:11;94726.00;;;17.50
14023;BMP180;7086;48.116;11.580;2023-05-10T03:26:43;94722.00;;;17.50
14023;BMP180;7086;48.116;11.580;2023-05-10T03:29:11;94738.00;;;17.50
14023;BMP180;7086;48.116;11.580;2023-05-10T03:31:39;94734.00;;;17.50
14023;BMP180;7086;48.116;11.580;2023-05-10T03:34:06;94740.00;;;17.50
14023;BMP180;7086;48.116;11.580;2023-05-10T03:36:32;94740.00;;;17.50
14023;BMP180;7086;48.116;11.580;2023-05-10T03:38:59;94734.00;;;17.50
14023;BMP180;7086;48.116;11.580;2023-05-10T03:41:26;94731.00;;;17.50
14023;BMP180;7086;48.116;11.580;2023-05-10T03:43:54;94738.00;;;17.50
14023;BMP180;7086;48.116;11.580;2023-05-10T03:46:21;94734.00;;;17.50
14023;BMP180;7086;48.116;11.580;2023-05-10T03:48:48;94738.00;;;17.50
14023;BMP180;7086;48.116;11.580;2023-05-10T03:51:15;94726.00;;;17.50
14023;BMP180;7086;48.116;11.580;2023-05-10T03:53:42;94745.00;;;17.50
14023;BMP180;7086;48.116;11.580;2023-05-10T03:56:08;94749.00;;;17.50
14023;BMP180;7086;48.116;11.580;2023-05-10T03:58:35;94739.00;;;17.50
14023;BMP180;7086;48.116;11.580;2023-05-10T04:01:03;94744.00;;;17.60
14023;BMP180;7086;48.116;11.580;2023-05-10T04:03:30;94750.00;;;17.50
14023;BMP180;7086;48.116;11.580;2023-05-10T04:06:00;94752.00;;;17.50
14023;BMP180;7086;48.116;11.580;2023-05-10T04:08:27;94750.00;;;17.50
14023;BMP180;7086;48.116;11.580;2023-05-10T04:10:54;94746.00;;;17.60
14023;BMP180;7086;48.116;11.580;2023-05-10T04:13:20;94749.00;;;17.50
14023;BMP180;7086;48.116;11.580;2023-05-10T04:15:47;94754.00;;;17.50
14023;BMP180;7086;48.116;11.580;2023-05-10T04:18:16;94723.00;;;17.60
14023;BMP180;7086;48.116;11.580;2023-05-10T04:20:42;94749.00;;;17.60
14023;BMP180;7086;48.116;11.580;2023-05-10T04:23:09;94723.00;;;17.60
14023;BMP180;7086;48.116;11.580;2023-05-10T04:25:36;94747.00;;;17.60
14023;BMP180;7086;48.116;11.580;2023-05-10T04:28:03;94739.00;;;17.60
14023;BMP180;7086;48.116;11.580;2023-05-10T04:30:30;94752.00;;;17.60
14023;BMP180;7086;48.116;11.580;2023-05-10T04:32:57;94756.00;;;17.60
14023;BMP180;7086;48.116;11.580;2023-05-10T04:35:25;94748.00;;;17.60
14023;BMP180;7086;48.116;11.580;2023-05-10T04:37:52;94753.00;;;17.70
14023;BMP180;7086;48.116;11.580;2023-05-10T04:40:19;94763.00;;;17.70
14023;BMP180;7086;48.116;11.580;2023-05-10T04:42:46;94701.00;;;17.70
14023;BMP180;7086;48.116;11.580;2023-05-10T04:45:13;94764.00;;;17.70
14023;BMP180;7086;48.116;11.580;2023-05-10T04:47:41;94762.00;;;17.70
14023;BMP180;7086;48.116;11.580;2023-05-10T04:50:08;94767.00;;;17.70
14023;BMP180;7086;48.116;11.580;2023-05-10T04:52:36;94769.00;;;17.80
14023;BMP180;7086;48.116;11.580;2023-05-10T04:55:03;94770.00;;;17.70
14023;BMP180;7086;48.116;11.580;2023-05-10T04:57:32;94755.00;;;17.80
14023;BMP180;7086;48.116;11.580;2023-05-10T04:59:59;94784.00;;;17.70
14023;BMP180;7086;48.116;11.580;2023-05-10T05:02:27;94780.00;;;17.70
14023;BMP180;7086;48.116;11.580;2023-05-10T05:04:55;94808.00;;;17.70
14023;BMP180;7086;48.116;11.580;2023-05-10T05:07:23;94788.00;;;17.70
14023;BMP180;7086;48.116;11.580;2023-05-10T05:09:51;94788.00;;;17.70
14023;BMP180;7086;48.116;11.580;2023-05-10T05:12:18;94797.00;;;17.60
14023;BMP180;7086;48.116;11.580;2023-05-10T05:14:44;94790.00;;;17.70
14023;BMP180;7086;48.116;11.580;2023-05-10T05:17:11;94792.00;;;17.70
14023;BMP180;7086;48.116;11.580;2023-05-10T05:19:38;94778.00;;;17.70
14023;BMP180;7086;48.116;11.580;2023-05-10T05:22:06;94798.00;;;17.60
14023;BMP180;7086;48.116;11.580;2023-05-10T05:24:35;94810.00;;;17.50
14023;BMP180;7086;48.116;11.580;2023-05-10T05:27:04;94798.00;;;17.60
14023;BMP180;7086;48.116;11.580;2023-05-10T05:29:31;94782.00;;;17.60
14023;BMP180;7086;48.116;11.580;2023-05-10T05:31:58;94752.00;;;17.60
14023;BMP180;7086;48.116;11.580;2023-05-10T05:34:25;94810.00;;;17.40
14023;BMP180;7086;48.116;11.580;2023-05-10T05:36:52;94769.00;;;17.50
14023;BMP180;7086;48.116;11.580;2023-05-10T05:39:19;94739.00;;;17.50
14023;BMP180;7086;48.116;11.580;2023-05-10T05:41:46;94773.00;;;17.30
14023;BMP180;7086;48.116;11.580;2023-05-10T05:44:14;94804.00;;;17.50
14023;BMP180;7086;48.116;11.580;2023-05-10T05:46:41;94832.00;;;17.50
14023;BMP180;7086;48.116;11.580;2023-05-10T05:49:08;94846.00;;;17.40
14023;BMP180;7086;48.116;11.580;2023-05-10T05:51:35;94780.00;;;17.40
14023;BMP180;7086;48.116;11.580;2023-05-10T05:54:02;94832.00;;;17.40
14023;BMP180;7086;48.116;11.580;2023-05-10T05:56:29;94833.00;;;17.40
14023;BMP180;7086;48.116;11.580;2023-05-10T05:58:56;94835.00;;;17.30
14023;BMP180;7086;48.116;11.580;2023-05-10T06:01:24;94777.00;;;17.40
14023;BMP180;7086;48.116;11.580;2023-05-10T06:03:51;94812.00;;;17.30
14023;BMP180;7086;48.116;11.580;2023-05-10T06:06:18;94819.00;;;17.20
14023;BMP180;7086;48.116;11.580;2023-05-10T06:08:45;94837.00;;;17.30
14023;BMP180;7086;48.116;11.580;2023-05-10T06:11:12;94803.00;;;17.30
14023;BMP180;7086;48.116;11.580;2023-05-10T06:13:39;94859.00;;;17.30
14023;BMP180;7086;48.116;11.580;2023-05-10T06:16:06;94861.00;;;17.30
14023;BMP180;7086;48.116;11.580;2023-05-10T06:18:34;94862.00;;;17.20
14023;BMP180;7086;48.116;11.580;2023-05-10T06:21:01;94841.00;;;17.20
14023;BMP180;7086;48.116;11.580;2023-05-10T06:23:28;94864.00;;;17.30
14023;BMP180;7086;48.116;11.580;2023-05-10T06:25:55;94875.00;;;17.30
14023;BMP180;7086;48.116;11.580;2023-05-10T06:28:22;94846.00;;;17.30
14023;BMP180;7086;48.116;11.580;2023-05-10T06:30:49;94873.00;;;17.40
14023;BMP180;7086;48.116;11.580;2023-05-10T06:33:16;94874.00;;;17.40
14023;BMP180;7086;48.116;11.580;2023-05-10T06:35:46;94822.00;;;17.50
14023;BMP180;7086;48.116;11.580;2023-05-10T06:38:13;94891.00;;;17.50
14023;BMP180;7086;48.116;11.580;2023-05-10T06:40:41;94857.00;;;17.50
14023;BMP180;7086;48.116;11.580;2023-05-10T06:43:09;94781.00;;;17.60
14023;BMP180;7086;48.116;11.580;2023-05-10T06:45:36;94861.00;;;17.60
14023;BMP180;7086;48.116;11.580;2023-05-10T06:48:03;94880.00;;;17.60
14023;BMP180;7086;48.116;11.580;2023-05-10T06:50:30;94837.00;;;17.70
14023;BMP180;7086;48.116;11.580;2023-05-10T06:52:59;94862.00;;;17.80
14023;BMP180;7086;48.116;11.580;2023-05-10T06:55:27;94889.00;;;17.70
14023;BMP180;7086;48.116;11.580;2023-05-10T06:57:57;94893.00;;;17.90
14023;BMP180;7086;48.116;11.580;2023-05-10T07:00:24;94804.00;;;18.00
14023;BMP180;7086;48.116;11.580;2023-05-10T07:02:51;94852.00;;;18.00
14023;BMP180;7086;48.116;11.580;2023-05-10T07:05:18;94801.00;;;18.10
14023;BMP180;7086;48.116;11.580;2023-05-10T07:07:45;94902.00;;;18.20
14023;BMP180;7086;48.116;11.580;2023-05-10T07:10:14;94902.00;;;18.20
14023;BMP180;7086;48.116;11.580;2023-05-10T07:12:42;94900.00;;;18.00
14023;BMP180;7086;48.116;11.580;2023-05-10T07:15:09;94787.00;;;18.50
14023;BMP180;7086;48.116;11.580;2023-05-10T07:17:36;94782.00;;;18.60
14023;BMP180;7086;48.116;11.580;2023-05-10T07:20:05;94829.00;;;18.70
14023;BMP180;7086;48.116;11.580;2023-05-10T07:22:32;94841.00;;;18.80
14023;BMP180;7086;48.116;11.580;2023-05-10T07:24:59;94845.00;;;18.90
14023;BMP180;7086;48.116;11.580;2023-05-10T07:27:27;94901.00;;;19.10
14023;BMP180;7086;48.116;11.580;2023-05-10T07:29:54;94937.00;;;18.80
14023;BMP180;7086;48.116;11.580;2023-05-10T07:32:22;94841.00;;;19.40
14023;BMP180;7086;48.116;11.580;2023-05-10T07:34:48;94866.00;;;19.60
14023;BMP180;7086;48.116;11.580;2023-05-10T07:37:16;94898.00;;;19.90
14023;BMP180;7086;48.116;11.580;2023-05-10T07:39:43;94863.00;;;20.10
14023;BMP180;7086;48.116;11.580;2023-05-10T07:42:10;94858.00;;;20.30
14023;BMP180;7086;48.116;11.580;2023-05-10T07:44:38;94890.00;;;20.50
14023;BMP180;7086;48.116;11.580;2023-05-10T07:47:05;94882.00;;;20.30
14023;BMP180;7086;48.116;11.580;2023-05-10T07:49:32;94842.00;;;20.60
14023;BMP180;7086;48.116;11.580;2023-05-10T07:52:03;94898.00;;;21.10
14023;BMP180;7086;48.116;11.580;2023-05-10T07:54:32;94894.00;;;21.20
14023;BMP180;7086;48.116;11.580;2023-05-10T07:57:00;94903.00;;;22.00
14023;BMP180;7086;48.116;11.580;2023-05-10T07:59:30;94915.00;;;22.30
14023;BMP180;7086;48.116;11.580;2023-05-10T08:01:59;94903.00;;;22.70
14023;BMP180;7086;48.116;11.580;2023-05-10T08:04:27;94908.00;;;23.00
14023;BMP180;7086;48.116;11.580;2023-05-10T08:06:54;94871.00;;;23.20
14023;BMP180;7086;48.116;11.580;2023-05-10T08:09:21;94888.00;;;23.40
14023;BMP180;7086;48.116;11.580;2023-05-10T08:11:49;94932.00;;;23.80
14023;BMP180;7086;48.116;11.580;2023-05-10T08:14:19;94908.00;;;24.20
14023;BMP180;7086;48.116;11.580;2023-05-10T08:16:48;94829.00;;;24.40
14023;BMP180;7086;48.116;11.580;2023-05-10T08:19:22;94871.00;;;24.60
14023;BMP180;7086;48.116;11.580;2023-05-10T08:21:49;94844.00;;;24.40
14023;BMP180;7086;48.116;11.580;2023-05-10T08:24:17;94889.00;;;24.60
14023;BMP180;7086;48.116;11.580;2023-05-10T08:26:45;94862.00;;;24.50
14023;BMP180;7086;48.116;11.580;2023-05-10T08:29:13;94934.00;;;24.60
14023;BMP180;7086;48.116;11.580;2023-05-10T08:31:43;94908.00;;;24.60
14023;BMP180;7086;48.116;11.580;2023-05-10T08:34:12;94925.00;;;24.40
14023;BMP180;7086;48.116;11.580;2023-05-10T08:36:41;94920.00;;;24.30
14023;BMP180;7086;48.116;11.580;2023-05-10T08:39:10;94890.00;;;24.00
14023;BMP180;7086;48.116;11.580;2023-05-10T08:41:39;94922.00;;;23.90
14023;BMP180;7086;48.116;11.580;2023-05-10T08:44:10;94900.00;;;23.70
14023;BMP180;7086;48.116;11.580;2023-05-10T08:46:43;94926.00;;;23.40
14023;BMP180;7086;48.116;11.580;2023-05-10T08:49:16;94810.00;;;23.00
14023;BMP180;7086;48.116;11.580;2023-05-10T08:51:52;94899.00;;;22.80
14023;BMP180;7086;48.116;11.580;2023-05-10T08:54:24;94936.00;;;22.80
14023;BMP180;7086;48.116;11.580;2023-05-10T08:57:03;94901.00;;;22.50
14023;BMP180;7086;48.116;11.580;2023-05-10T08:59:30;94927.00;;;22.40
14023;BMP180;7086;48.116;11.580;2023-05-10T09:01:58;94936.00;;;22.10
14023;BMP180;7086;48.116;11.580;2023-05-10T09:04:26;94940.00;;;21.60
14023;BMP180;7086;48.116;11.580;2023-05-10T09:06:56;94924.00;;;21.60
14023;BMP180;7086;48.116;11.580;2023-05-10T09:09:25;94929.00;;;21.20
14023;BMP180;7086;48.116;11.580;2023-05-10T09:11:53;94878.00;;;21.40
14023;BMP180;7086;48.116;11.580;2023-05-10T09:14:23;94854.00;;;21.30
14023;BMP180;7086;48.116;11.580;2023-05-10T09:16:54;94927.00;;;21.40
14023;BMP180;7086;48.116;11.580;2023-05-10T09:19:21;94884.00;;;21.60
14023;BMP180;7086;48.116;11.580;2023-05-10T09:21:48;94883.00;;;21.80
14023;BMP180;7086;48.116;11.580;2023-05-10T09:24:17;94868.00;;;21.50
14023;BMP180;7086;48.116;11.580;2023-05-10T09:26:48;94923.00;;;21.90
14023;BMP180;7086;48.116;11.580;2023-05-10T09:29:24;94924.00;;;21.90
14023;BMP180;7086;48.116;11.580;2023-05-10T09:31:52;94871.00;;;21.90
14023;BMP180;7086;48.116;11.580;2023-05-10T09:34:28;94876.00;;;21.90
14023;BMP180;7086;48.116;11.580;2023-05-10T09:37:02;94904.00;;;21.80
14023;BMP180;7086;48.116;11.580;2023-05-10T09:39:33;94932.00;;;21.80
14023;BMP180;7086;48.116;11.580;2023-05-10T09:42:04;94880.00;;;21.70
14023;BMP180;7086;48.116;11.580;2023-05-10T09:44:35;94832.00;;;21.40
14023;BMP180;7086;48.116;11.580;2023-05-10T09:47:06;94909.00;;;21.80
14023;BMP180;7086;48.116;11.580;2023-05-10T09:49:33;94925.00;;;21.60
14023;BMP180;7086;48.116;11.580;2023-05-10T09:52:04;94938.00;;;22.00
14023;BMP180;7086;48.116;11.580;2023-05-10T09:55:01;94877.00;;;22.20
14023;BMP180;7086;48.116;11.580;2023-05-10T09:57:29;94905.00;;;22.40
14023;BMP180;7086;48.116;11.580;2023-05-10T10:00:00;94835.00;;;22.60
14023;BMP180;7086;48.116;11.580;2023-05-10T10:02:31;94931.00;;;22.70
14023;BMP180;7086;48.116;11.580;2023-05-10T10:05:01;94849.00;;;23.00
14023;BMP180;7086;48.116;11.580;2023-05-10T10:07:31;94937.00;;;23.20
14023;BMP180;7086;48.116;11.580;2023-05-10T10:10:00;94846.00;;;23.30
14023;BMP180;7086;48.116;11.580;2023-05-10T10:12:34;94856.00;;;23.50
14023;BMP180;7086;48.116;11.580;2023-05-10T10:15:07;94933.00;;;23.60
14023;BMP180;7086;48.116;11.580;2023-05-10T10:17:37;94905.00;;;23.50
14023;BMP180;7086;48.116;11.580;2023-05-10T10:20:09;94832.00;;;23.80
14023;BMP180;7086;48.116;11.580;2023-05-10T10:22:40;94853.00;;;23.90
14023;BMP180;7086;48.116;11.580;2023-05-10T10:25:11;94892.00;;;23.90
14023;BMP180;7086;48.116;11.580;2023-05-10T10:27:48;94941.00;;;23.70
14023;BMP180;7086;48.116;11.580;2023-05-10T10:30:24;94872.00;;;23.70
14023;BMP180;7086;48.116;11.580;2023-05-10T10:36:00;94907.00;;;24.20
14023;BMP180;7086;48.116;11.580;2023-05-10T10:38:37;94891.00;;;24.30
14023;BMP180;7086;48.116;11.580;2023-05-10T10:41:11;94904.00;;;24.60
14023;BMP180;7086;48.116;11.580;2023-05-10T10:44:24;94835.00;;;25.10
14023;BMP180;7086;48.116;11.580;2023-05-10T10:46:59;94910.00;;;25.40
14023;BMP180;7086;48.116;11.580;2023-05-10T10:49:27;94820.00;;;25.70
14023;BMP180;7086;48.116;11.580;2023-05-10T10:52:14;94894.00;;;25.90
14023;BMP180;7086;48.116;11.580;2023-05-10T10:54:50;94851.00;;;25.90
14023;BMP180;7086;48.116;11.580;2023-05-10T10:57:22;94802.00;;;25.90
14023;BMP180;7086;48.116;11.580;2023-05-10T11:00:22;94870.00;;;25.80
14023;BMP180;7086;48.116;11.580;2023-05-10T11:02:51;94830.00;;;25.70
14023;BMP180;7086;48.116;11.580;2023-05-10T11:05:38;94908.00;;;25.50
14023;BMP180;7086;48.116;11.580;2023-05-10T11:08:29;94796.00;;;25.20
14023;BMP180;7086;48.116;11.580;2023-05-10T11:11:06;94901.00;;;24.80
14023;BMP180;7086;48.116;11.580;2023-05-10T11:13:42;94811.00;;;24.40
14023;BMP180;7086;48.116;11.580;2023-05-10T11:16:17;94851.00;;;24.00
14023;BMP180;7086;48.116;11.580;2023-05-10T11:18:59;94860.00;;;23.50
14023;BMP180;7086;48.116;11.580;2023-05-10T11:21:32;94896.00;;;23.10
14023;BMP180;7086;48.116;11.580;2023-05-10T11:24:00;94946.00;;;22.80
14023;BMP180;7086;48.116;11.580;2023-05-10T11:26:34;94839.00;;;22.50
14023;BMP180;7086;48.116;11.580;2023-05-10T11:29:06;94928.00;;;22.20
14023;BMP180;7086;48.116;11.580;2023-05-10T11:31:34;94897.00;;;21.90
14023;BMP180;7086;48.116;11.580;2023-05-10T11:34:03;94917.00;;;21.60
14023;BMP180;7086;48.116;11.580;2023-05-10T11:36:36;94851.00;;;21.20
14023;BMP180;7086;48.116;11.580;2023-05-10T11:39:06;94891.00;;;21.20
14023;BMP180;7086;48.116;11.580;2023-05-10T11:41:33;94921.00;;;21.00
14023;BMP180;7086;48.116;11.580;2023-05-10T11:44:02;94946.00;;;20.80
14023;BMP180;7086;48.116;11.580;2023-05-10T11:46:31;94876.00;;;20.50
14023;BMP180;7086;48.116;11.580;2023-05-10T11:49:00;94886.00;;;20.30
14023;BMP180;7086;48.116;11.580;2023-05-10T11:51:32;94972.00;;;20.00
14023;BMP180;7086;48.116;11.580;2023-05-10T11:53:59;94933.00;;;19.70
14023;BMP180;7086;48.116;11.580;2023-05-10T11:56:26;94886.00;;;19.50
14023;BMP180;7086;48.116;11.580;2023-05-10T11:58:55;94907.00;;;19.20
14023;BMP180;7086;48.116;11.580;2023-05-10T12:01:28;94920.00;;;18.80
14023;BMP180;7086;48.116;11.580;2023-05-10T12:04:00;94956.00;;;18.80
14023;BMP180;7086;48.116;11.580;2023-05-10T12:06:29;94898.00;;;18.70
14023;BMP180;7086;48.116;11.580;2023-05-10T12:08:57;94935.00;;;18.70
14023;BMP180;7086;48.116;11.580;2023-05-10T12:11:25;94920.00;;;18.50
14023;BMP180;7086;48.116;11.580;2023-05-10T12:14:03;94966.00;;;18.50
14023;BMP180;7086;48.116;11.580;2023-05-10T12:16:34;94954.00;;;18.40
14023;BMP180;7086;48.116;11.580;2023-05-10T12:19:09;94999.00;;;18.30
14023;BMP180;7086;48.116;11.580;2023-05-10T12:21:39;94867.00;;;18.30
14023;BMP180;7086;48.116;11.580;2023-05-10T12:24:11;94916.00;;;18.10
14023;BMP180;7086;48.116;11.580;2023-05-10T12:26:42;95037.00;;;18.20
14023;BMP180;7086;48.116;11.580;2023-05-10T12:29:13;94989.00;;;18.20
14023;BMP180;7086;48.116;11.580;2023-05-10T12:31:54;95029.00;;;18.10
14023;BMP180;7086;48.116;11.580;2023-05-10T12:34:29;94973.00;;;18.10
14023;BMP180;7086;48.116;11.580;2023-05-10T12:36:57;94993.00;;;17.90
14023;BMP180;7086;48.116;11.580;2023-05-10T12:39:24;95031.00;;;18.00
14023;BMP180;7086;48.116;11.580;2023-05-10T12:41:50;94990.00;;;18.00
14023;BMP180;7086;48.116;11.580;2023-05-10T12:44:18;94956.00;;;18.00
14023;BMP180;7086;48.116;11.580;2023-05-10T12:46:47;94984.00;;;18.00
14023;BMP180;7086;48.116;11.580;2023-05-10T12:49:14;95053.00;;;18.00
14023;BMP180;7086;48.116;11.580;2023-05-10T12:51:43;95000.00;;;18.10
14023;BMP180;7086;48.116;11.580;2023-05-10T12:54:10;94963.00;;;18.10
14023;BMP180;7086;48.116;11.580;2023-05-10T12:56:37;95006.00;;;18.10
14023;BMP180;7086;48.116;11.580;2023-05-10T12:59:06;94924.00;;;18.00
14023;BMP180;7086;48.116;11.580;2023-05-10T13:01:33;95040.00;;;17.70
14023;BMP180;7086;48.116;11.580;2023-05-10T13:04:00;94998.00;;;18.10
14023;BMP180;7086;48.116;11.580;2023-05-10T13:06:27;94953.00;;;18.20
14023;BMP180;7086;48.116;11.580;2023-05-10T13:08:55;94952.00;;;18.20
14023;BMP180;7086;48.116;11.580;2023-05-10T13:11:24;94979.00;;;18.20
14023;BMP180;7086;48.116;11.580;2023-05-10T13:13:54;95046.00;;;18.10
14023;BMP180;7086;48.116;11.580;2023-05-10T13:16:23;94921.00;;;18.00
14023;BMP180;7086;48.116;11.580;2023-05-10T13:18:50;94932.00;;;18.20
14023;BMP180;7086;48.116;11.580;2023-05-10T13:21:16;94916.00;;;18.10
14023;BMP180;7086;48.116;11.580;2023-05-10T13:23:43;94981.00;;;18.10
14023;BMP180;7086;48.116;11.580;2023-05-10T13:26:13;95016.00;;;18.30
14023;BMP180;7086;48.116;11.580;2023-05-10T13:28:40;95005.00;;;18.10
14023;BMP180;7086;48.116;11.580;2023-05-10T13:31:07;95007.00;;;18.30
14023;BMP180;7086;48.116;11.580;2023-05-10T13:33:34;94906.00;;;18.40
14023;BMP180;7086;48.116;11.580;2023-05-10T13:36:01;94920.00;;;18.40
14023;BMP180;7086;48.116;11.580;2023-05-10T13:38:29;94928.00;;;18.40
14023;BMP180;7086;48.116;11.580;2023-05-10T13:40:55;94989.00;;;18.40
14023;BMP180;7086;48.116;11.580;2023-05-10T13:43:24;95014.00;;;18.00
14023;BMP180;7086;48.116;11.580;2023-05-10T13:45:51;94987.00;;;18.40
14023;BMP180;7086;48.116;11.580;2023-05-10T13:48:18;95015.00;;;18.40
14023;BMP180;7086;48.116;11.580;2023-05-10T13:50:45;95014.00;;;18.30
14023;BMP180;7086;48.116;11.580;2023-05-10T13:53:12;94998.00;;;18.10
14023;BMP180;7086;48.116;11.580;2023-05-10T13:55:41;95005.00;;;18.30
14023;BMP180;7086;48.116;11.580;2023-05-10T13:58:08;95009.00;;;18.20
14023;BMP180;7086;48.116;11.580;2023-05-10T14:00:37;94975.00;;;18.30
14023;BMP180;7086;48.116;11.580;2023-05-10T14:03:04;95011.00;;;18.20
14023;BMP180;7086;48.116;11.580;2023-05-10T14:05:32;95004.00;;;18.30
14023;BMP180;7086;48.116;11.580;2023-05-10T14:07:59;95002.00;;;18.30
14023;BMP180;7086;48.116;11.580;2023-05-10T14:10:26;94993.00;;;18.30
14023;BMP180;7086;48.116;11.580;2023-05-10T14:12:54;94974.00;;;18.20
14023;BMP180;7086;48.116;11.580;2023-05-10T14:15:21;95007.00;;;18.30
14023;BMP180;7086;48.116;11.580;2023-05-10T14:17:50;94998.00;;;18.30
14023;BMP180;7086;48.116;11.580;2023-05-10T14:20:18;94993.00;;;18.20
14023;BMP180;7086;48.116;11.580;2023-05-10T14:22:45;94999.00;;;18.30
14023;BMP180;7086;48.116;11.580;2023-05-10T14:25:13;95006.00;;;18.20
14023;BMP180;7086;48.116;11.580;2023-05-10T14:27:40;94996.00;;;18.30
14023;BMP180;7086;48.116;11.580;2023-05-10T14:30:11;94992.00;;;18.30